Clovis, CA (93613)

5:03 AM PDT on September 16, 2014 (GMT -0700)
NE Clovis | Change Station
CLOSE
Current Station
Personal Weather Station
Location: Clovis, CA
Elevation: 394 ft
Nearby Weather Stations

Elev 394 ft 36.82 °N, 119.66 °W | Updated 16 seconds ago

Clear
Clear
70.7 °F
Feels Like 76 °F
N
0.7
Wind Variable Wind from East
Gusts 1.6 mph

Today
High -- | Low -- °F
--% Chance of Precip.
Yesterday
High -- | Low -- °F
Precip. -- in
6:41 AM 7:04 PM
Last Quarter, 46% visible
Pressure 29.86 in
Visibility 10.0 miles
Clouds Clear
Heat Index 76 °F
Dew Point 55 °F
Humidity 58%
Rainfall 0.00 in
Snow Depth 0 in , 0 in , 0 in
UV 0 out of 12
Pollen 6.80 out of 12
Air Quality Not available.
Flu Activity Not available.
METAR KFAT 161153Z 31007KT 10SM CLR 21/11 A2987 RMK AO2 SLP109 T02110111 10289 20211 53002

More Conditions Fewer Conditions

Pressure 29.86 in
Visibility 10.0 miles
Clouds Clear
Heat Index 76 °F
Dew Point 55 °F
Humidity 58%
Rainfall 0.00 in
Snow Depth 0 in , 0 in , 0 in
UV 0 out of 12
Pollen 6.80 out of 12
Air Quality Not available.
Flu Activity Not available.
METAR KFAT 161153Z 31007KT 10SM CLR 21/11 A2987 RMK AO2 SLP109 T02110111 10289 20211 53002

More Conditions Fewer Conditions

10-Day Weather Forecast

Almanac

Astronomy

Sep. 16, 2014 Rise Set
Actual Time 6:41 AM PDT 7:04 PM PDT
Civil Twilight 6:15 AM PDT 7:30 PM PDT
Nautical Twilight 5:45 AM PDT 8:00 PM PDT
Astronomical Twilight 5:14 AM PDT 8:31 PM PDT
Moon 12:02 AM PDT 2:25 PM PDT
Length of Visible Light 13h 14m
Length of Day
12h 22m
Tomorrow will be 2m 19s shorter.
Last Quarter, 46% of the Moon is Illuminated
Today
Last Quarter
Sep 24
New
Oct 1
First Quarter
Oct 8
Full
Oct 15
Last Quarter

Today's Extremes

State Highs State Lows

Community

WunderPhotos

Upload Photos

1,753,725 photos uploaded!

Nearby

Air Quality

  Air Quality AQ Index Pollutant
Yesterday Unhealthy for Sensitive Groups
OZONE
Tuesday Unhealthy for Sensitive Groups
OZONE
Wednesday Unhealthy for Sensitive Groups
OZONE
Thursday Unhealthy for Sensitive Groups
OZONE
Friday Unhealthy for Sensitive Groups
OZONE
Saturday Unhealthy for Sensitive Groups
OZONE

Snow Depth

Station Depth Elevation
Sonora Pass 0 in 8800 ft
Echo Peak 0 in 7800 ft
Summit Meadow 0 in 9122 ft
Spratt Creek 0 in 6200 ft
Monitor Pass 0 in 8350 ft

Earthquake Activity

City Distance Mag. Time & Date
Inyokern, California 109 miles 3.2 5:56 PM PDT
2014-09-14
Minimum magnitude displayed is 2.5.

Coastal Water Temperatures

Place Temperature
No Stations Reporting

Nearby Weather Stations